sensor_id;sensor_type;location;lat;lon;timestamp;P1;durP1;ratioP1;P2;durP2;ratioP2
35324;SDS011;35135;47.510;19.036;2022-07-22T08:23:54;14.20;;;3.15;;
35324;SDS011;35135;47.510;19.036;2022-07-22T08:26:27;8.45;;;2.80;;
35324;SDS011;35135;47.510;19.036;2022-07-22T08:28:55;8.18;;;2.63;;
35324;SDS011;35135;47.510;19.036;2022-07-22T08:31:21;9.32;;;2.60;;
35324;SDS011;35135;47.510;19.036;2022-07-22T08:33:52;8.30;;;2.47;;
35324;SDS011;35135;47.510;19.036;2022-07-22T08:36:23;6.22;;;1.92;;
35324;SDS011;35135;47.510;19.036;2022-07-22T08:38:53;6.68;;;2.63;;
35324;SDS011;35135;47.510;19.036;2022-07-22T08:41:25;4.93;;;2.72;;
35324;SDS011;35135;47.510;19.036;2022-07-22T08:43:54;6.10;;;2.33;;
35324;SDS011;35135;47.510;19.036;2022-07-22T08:46:22;5.40;;;2.40;;
35324;SDS011;35135;47.510;19.036;2022-07-22T08:48:50;6.10;;;2.67;;
35324;SDS011;35135;47.510;19.036;2022-07-22T08:51:20;6.50;;;2.50;;
35324;SDS011;35135;47.510;19.036;2022-07-22T08:53:46;6.80;;;2.42;;
35324;SDS011;35135;47.510;19.036;2022-07-22T08:56:21;3.10;;;2.28;;
35324;SDS011;35135;47.510;19.036;2022-07-22T08:58:47;4.78;;;2.08;;
35324;SDS011;35135;47.510;19.036;2022-07-22T09:01:15;4.40;;;1.83;;
35324;SDS011;35135;47.510;19.036;2022-07-22T09:03:56;6.25;;;2.33;;
35324;SDS011;35135;47.510;19.036;2022-07-22T09:06:24;5.57;;;2.28;;
35324;SDS011;35135;47.510;19.036;2022-07-22T09:08:57;4.97;;;1.73;;
35324;SDS011;35135;47.510;19.036;2022-07-22T09:11:32;5.13;;;2.22;;
35324;SDS011;35135;47.510;19.036;2022-07-22T09:14:02;5.15;;;2.17;;
35324;SDS011;35135;47.510;19.036;2022-07-22T09:16:41;6.57;;;2.40;;
35324;SDS011;35135;47.510;19.036;2022-07-22T09:19:08;4.63;;;2.28;;
35324;SDS011;35135;47.510;19.036;2022-07-22T09:21:38;4.63;;;2.30;;
35324;SDS011;35135;47.510;19.036;2022-07-22T09:24:08;3.00;;;1.92;;
35324;SDS011;35135;47.510;19.036;2022-07-22T09:26:53;4.57;;;2.20;;
35324;SDS011;35135;47.510;19.036;2022-07-22T09:29:29;5.93;;;2.33;;
35324;SDS011;35135;47.510;19.036;2022-07-22T09:31:57;3.08;;;2.25;;
35324;SDS011;35135;47.510;19.036;2022-07-22T09:34:28;2.95;;;1.95;;
35324;SDS011;35135;47.510;19.036;2022-07-22T09:36:59;3.25;;;1.80;;
35324;SDS011;35135;47.510;19.036;2022-07-22T09:39:28;3.88;;;2.25;;
35324;SDS011;35135;47.510;19.036;2022-07-22T09:41:59;5.72;;;2.50;;
35324;SDS011;35135;47.510;19.036;2022-07-22T09:44:35;4.05;;;2.22;;
35324;SDS011;35135;47.510;19.036;2022-07-22T09:47:04;4.90;;;2.55;;
35324;SDS011;35135;47.510;19.036;2022-07-22T09:49:45;4.20;;;2.50;;
35324;SDS011;35135;47.510;19.036;2022-07-22T09:52:14;3.80;;;2.13;;
35324;SDS011;35135;47.510;19.036;2022-07-22T09:54:43;5.72;;;2.60;;
35324;SDS011;35135;47.510;19.036;2022-07-22T09:57:12;6.85;;;2.35;;
35324;SDS011;35135;47.510;19.036;2022-07-22T09:59:41;3.55;;;2.10;;
35324;SDS011;35135;47.510;19.036;2022-07-22T10:02:17;4.82;;;2.35;;
35324;SDS011;35135;47.510;19.036;2022-07-22T10:04:44;3.60;;;2.40;;
35324;SDS011;35135;47.510;19.036;2022-07-22T10:07:18;4.57;;;2.03;;
35324;SDS011;35135;47.510;19.036;2022-07-22T10:09:48;3.83;;;2.25;;
35324;SDS011;35135;47.510;19.036;2022-07-22T10:12:17;6.68;;;2.25;;
35324;SDS011;35135;47.510;19.036;2022-07-22T10:14:48;4.90;;;2.33;;
35324;SDS011;35135;47.510;19.036;2022-07-22T10:17:19;10.15;;;2.53;;
35324;SDS011;35135;47.510;19.036;2022-07-22T10:19:48;5.78;;;2.58;;
35324;SDS011;35135;47.510;19.036;2022-07-22T10:25:10;5.70;;;2.72;;
35324;SDS011;35135;47.510;19.036;2022-07-22T10:30:26;6.07;;;2.95;;
35324;SDS011;35135;47.510;19.036;2022-07-22T10:33:03;5.57;;;2.67;;
35324;SDS011;35135;47.510;19.036;2022-07-22T10:35:49;4.35;;;2.58;;
35324;SDS011;35135;47.510;19.036;2022-07-22T10:38:29;5.00;;;2.50;;
35324;SDS011;35135;47.510;19.036;2022-07-22T10:40:58;4.55;;;2.80;;
35324;SDS011;35135;47.510;19.036;2022-07-22T10:43:45;4.38;;;2.88;;
35324;SDS011;35135;47.510;19.036;2022-07-22T10:46:13;5.28;;;2.30;;
35324;SDS011;35135;47.510;19.036;2022-07-22T10:51:21;4.00;;;2.70;;
35324;SDS011;35135;47.510;19.036;2022-07-22T10:53:54;3.63;;;2.38;;
35324;SDS011;35135;47.510;19.036;2022-07-22T10:56:29;5.57;;;2.60;;
35324;SDS011;35135;47.510;19.036;2022-07-22T10:59:10;8.02;;;3.17;;
35324;SDS011;35135;47.510;19.036;2022-07-22T11:01:43;14.50;;;2.85;;
35324;SDS011;35135;47.510;19.036;2022-07-22T11:06:48;5.47;;;2.63;;
35324;SDS011;35135;47.510;19.036;2022-07-22T11:09:19;6.32;;;3.03;;
35324;SDS011;35135;47.510;19.036;2022-07-22T11:11:54;7.93;;;3.47;;
35324;SDS011;35135;47.510;19.036;2022-07-22T11:16:52;5.82;;;3.20;;
35324;SDS011;35135;47.510;19.036;2022-07-22T11:19:23;5.63;;;2.97;;
35324;SDS011;35135;47.510;19.036;2022-07-22T11:21:51;6.28;;;2.92;;
35324;SDS011;35135;47.510;19.036;2022-07-22T11:24:21;8.40;;;3.25;;
35324;SDS011;35135;47.510;19.036;2022-07-22T11:26:55;6.00;;;3.30;;
35324;SDS011;35135;47.510;19.036;2022-07-22T11:29:30;4.78;;;3.20;;
35324;SDS011;35135;47.510;19.036;2022-07-22T11:32:00;4.72;;;3.25;;
35324;SDS011;35135;47.510;19.036;2022-07-22T11:34:28;4.47;;;3.08;;
35324;SDS011;35135;47.510;19.036;2022-07-22T11:36:55;4.38;;;2.97;;
35324;SDS011;35135;47.510;19.036;2022-07-22T11:39:25;7.35;;;3.55;;
35324;SDS011;35135;47.510;19.036;2022-07-22T11:41:57;5.22;;;3.15;;
35324;SDS011;35135;47.510;19.036;2022-07-22T11:44:27;5.53;;;3.17;;
35324;SDS011;35135;47.510;19.036;2022-07-22T11:46:56;6.28;;;3.00;;
35324;SDS011;35135;47.510;19.036;2022-07-22T11:49:27;4.65;;;3.42;;
35324;SDS011;35135;47.510;19.036;2022-07-22T11:52:03;6.30;;;3.70;;
35324;SDS011;35135;47.510;19.036;2022-07-22T11:54:39;5.15;;;3.42;;
35324;SDS011;35135;47.510;19.036;2022-07-22T11:57:07;7.30;;;3.45;;
35324;SDS011;35135;47.510;19.036;2022-07-22T11:59:37;5.25;;;3.63;;
35324;SDS011;35135;47.510;19.036;2022-07-22T12:02:06;9.27;;;4.05;;
35324;SDS011;35135;47.510;19.036;2022-07-22T12:04:35;10.00;;;4.00;;
35324;SDS011;35135;47.510;19.036;2022-07-22T12:07:02;9.43;;;4.18;;
35324;SDS011;35135;47.510;19.036;2022-07-22T12:09:35;7.13;;;4.10;;
35324;SDS011;35135;47.510;19.036;2022-07-22T12:12:07;6.43;;;4.35;;
35324;SDS011;35135;47.510;19.036;2022-07-22T12:14:50;5.97;;;3.60;;
35324;SDS011;35135;47.510;19.036;2022-07-22T12:17:22;8.05;;;4.00;;
35324;SDS011;35135;47.510;19.036;2022-07-22T12:20:05;9.93;;;3.53;;
35324;SDS011;35135;47.510;19.036;2022-07-22T12:22:45;4.25;;;3.70;;
35324;SDS011;35135;47.510;19.036;2022-07-22T12:25:20;6.43;;;3.70;;
35324;SDS011;35135;47.510;19.036;2022-07-22T12:28:01;5.88;;;3.58;;
35324;SDS011;35135;47.510;19.036;2022-07-22T12:30:29;4.35;;;3.83;;
35324;SDS011;35135;47.510;19.036;2022-07-22T12:32:57;5.75;;;3.90;;
35324;SDS011;35135;47.510;19.036;2022-07-22T12:35:26;7.25;;;3.75;;
35324;SDS011;35135;47.510;19.036;2022-07-22T12:37:53;6.78;;;3.53;;
35324;SDS011;35135;47.510;19.036;2022-07-22T12:40:26;5.68;;;3.50;;
35324;SDS011;35135;47.510;19.036;2022-07-22T12:43:03;5.00;;;3.78;;
35324;SDS011;35135;47.510;19.036;2022-07-22T12:45:33;3.65;;;3.35;;
35324;SDS011;35135;47.510;19.036;2022-07-22T12:48:06;5.03;;;3.17;;
35324;SDS011;35135;47.510;19.036;2022-07-22T12:50:38;5.03;;;3.50;;
35324;SDS011;35135;47.510;19.036;2022-07-22T12:53:12;4.20;;;3.80;;
35324;SDS011;35135;47.510;19.036;2022-07-22T12:55:43;5.38;;;3.40;;
35324;SDS011;35135;47.510;19.036;2022-07-22T12:58:26;5.05;;;3.90;;
35324;SDS011;35135;47.510;19.036;2022-07-22T13:00:56;4.15;;;3.42;;
35324;SDS011;35135;47.510;19.036;2022-07-22T13:03:27;5.77;;;3.77;;
35324;SDS011;35135;47.510;19.036;2022-07-22T13:06:05;4.25;;;3.75;;
35324;SDS011;35135;47.510;19.036;2022-07-22T13:08:44;6.43;;;3.60;;
35324;SDS011;35135;47.510;19.036;2022-07-22T13:11:13;4.60;;;3.35;;
35324;SDS011;35135;47.510;19.036;2022-07-22T13:13:39;6.78;;;3.65;;
35324;SDS011;35135;47.510;19.036;2022-07-22T13:16:14;5.28;;;3.70;;
35324;SDS011;35135;47.510;19.036;2022-07-22T13:18:42;3.80;;;3.50;;
35324;SDS011;35135;47.510;19.036;2022-07-22T13:21:10;4.50;;;3.35;;
35324;SDS011;35135;47.510;19.036;2022-07-22T13:23:39;5.43;;;3.80;;
35324;SDS011;35135;47.510;19.036;2022-07-22T13:26:11;3.50;;;3.20;;
35324;SDS011;35135;47.510;19.036;2022-07-22T13:28:39;7.45;;;3.60;;
35324;SDS011;35135;47.510;19.036;2022-07-22T13:31:08;4.57;;;3.42;;
35324;SDS011;35135;47.510;19.036;2022-07-22T13:33:37;4.72;;;3.42;;
35324;SDS011;35135;47.510;19.036;2022-07-22T13:36:09;6.38;;;3.70;;
35324;SDS011;35135;47.510;19.036;2022-07-22T13:38:42;7.47;;;3.47;;
35324;SDS011;35135;47.510;19.036;2022-07-22T13:41:12;4.07;;;3.50;;
35324;SDS011;35135;47.510;19.036;2022-07-22T13:46:12;4.65;;;3.90;;
35324;SDS011;35135;47.510;19.036;2022-07-22T13:48:46;7.30;;;3.83;;
35324;SDS011;35135;47.510;19.036;2022-07-22T13:51:15;7.65;;;3.90;;
35324;SDS011;35135;47.510;19.036;2022-07-22T13:53:44;5.13;;;3.88;;
35324;SDS011;35135;47.510;19.036;2022-07-22T13:56:13;6.40;;;3.83;;
35324;SDS011;35135;47.510;19.036;2022-07-22T13:58:41;5.07;;;3.88;;
35324;SDS011;35135;47.510;19.036;2022-07-22T14:01:10;6.93;;;4.18;;
35324;SDS011;35135;47.510;19.036;2022-07-22T14:03:43;7.22;;;4.45;;
35324;SDS011;35135;47.510;19.036;2022-07-22T14:06:22;5.95;;;4.18;;
35324;SDS011;35135;47.510;19.036;2022-07-22T14:08:51;5.03;;;3.97;;
35324;SDS011;35135;47.510;19.036;2022-07-22T14:11:21;7.53;;;4.53;;
35324;SDS011;35135;47.510;19.036;2022-07-22T14:13:54;7.32;;;3.95;;
35324;SDS011;35135;47.510;19.036;2022-07-22T14:16:20;5.32;;;4.05;;
35324;SDS011;35135;47.510;19.036;2022-07-22T14:19:01;6.50;;;3.92;;
35324;SDS011;35135;47.510;19.036;2022-07-22T14:21:34;5.28;;;4.25;;
35324;SDS011;35135;47.510;19.036;2022-07-22T14:24:05;7.15;;;4.18;;
35324;SDS011;35135;47.510;19.036;2022-07-22T14:26:34;6.45;;;4.20;;
35324;SDS011;35135;47.510;19.036;2022-07-22T14:29:04;7.38;;;4.32;;
35324;SDS011;35135;47.510;19.036;2022-07-22T14:31:34;5.60;;;3.77;;
35324;SDS011;35135;47.510;19.036;2022-07-22T14:34:08;6.63;;;3.95;;
35324;SDS011;35135;47.510;19.036;2022-07-22T14:36:37;5.28;;;3.60;;
35324;SDS011;35135;47.510;19.036;2022-07-22T14:39:06;4.93;;;3.90;;
35324;SDS011;35135;47.510;19.036;2022-07-22T14:41:39;6.55;;;4.32;;
35324;SDS011;35135;47.510;19.036;2022-07-22T14:44:12;6.90;;;4.05;;
35324;SDS011;35135;47.510;19.036;2022-07-22T14:46:41;5.97;;;3.75;;
35324;SDS011;35135;47.510;19.036;2022-07-22T14:49:09;5.70;;;3.50;;
35324;SDS011;35135;47.510;19.036;2022-07-22T14:51:38;5.55;;;4.10;;
35324;SDS011;35135;47.510;19.036;2022-07-22T14:54:06;4.85;;;3.72;;
35324;SDS011;35135;47.510;19.036;2022-07-22T14:56:37;4.40;;;4.00;;
35324;SDS011;35135;47.510;19.036;2022-07-22T14:59:05;4.10;;;3.47;;
35324;SDS011;35135;47.510;19.036;2022-07-22T15:01:32;4.78;;;3.80;;
35324;SDS011;35135;47.510;19.036;2022-07-22T15:04:02;3.58;;;3.28;;
35324;SDS011;35135;47.510;19.036;2022-07-22T15:06:32;4.60;;;3.90;;
35324;SDS011;35135;47.510;19.036;2022-07-22T15:09:00;5.90;;;3.55;;
35324;SDS011;35135;47.510;19.036;2022-07-22T15:11:31;4.43;;;3.72;;
35324;SDS011;35135;47.510;19.036;2022-07-22T15:14:02;5.55;;;4.13;;
35324;SDS011;35135;47.510;19.036;2022-07-22T15:16:30;4.15;;;3.78;;
35324;SDS011;35135;47.510;19.036;2022-07-22T15:18:59;4.80;;;3.90;;
35324;SDS011;35135;47.510;19.036;2022-07-22T15:21:28;7.05;;;3.80;;
35324;SDS011;35135;47.510;19.036;2022-07-22T15:23:58;4.10;;;3.65;;
35324;SDS011;35135;47.510;19.036;2022-07-22T15:26:27;4.78;;;3.15;;
35324;SDS011;35135;47.510;19.036;2022-07-22T15:28:56;4.25;;;3.80;;
35324;SDS011;35135;47.510;19.036;2022-07-22T15:31:25;4.25;;;3.83;;
35324;SDS011;35135;47.510;19.036;2022-07-22T15:33:57;3.97;;;3.65;;
35324;SDS011;35135;47.510;19.036;2022-07-22T15:36:25;3.83;;;3.47;;
35324;SDS011;35135;47.510;19.036;2022-07-22T15:38:52;5.03;;;3.65;;
35324;SDS011;35135;47.510;19.036;2022-07-22T15:41:20;4.32;;;3.40;;
35324;SDS011;35135;47.510;19.036;2022-07-22T15:43:51;4.60;;;3.90;;
35324;SDS011;35135;47.510;19.036;2022-07-22T15:46:39;4.05;;;3.50;;
35324;SDS011;35135;47.510;19.036;2022-07-22T15:49:07;5.10;;;3.85;;
35324;SDS011;35135;47.510;19.036;2022-07-22T15:51:37;4.28;;;3.55;;
35324;SDS011;35135;47.510;19.036;2022-07-22T15:54:07;4.88;;;3.50;;
35324;SDS011;35135;47.510;19.036;2022-07-22T15:56:36;5.05;;;3.50;;
35324;SDS011;35135;47.510;19.036;2022-07-22T15:59:06;4.30;;;3.80;;
35324;SDS011;35135;47.510;19.036;2022-07-22T16:01:53;4.68;;;3.60;;
35324;SDS011;35135;47.510;19.036;2022-07-22T16:04:19;5.63;;;3.78;;
35324;SDS011;35135;47.510;19.036;2022-07-22T16:06:46;6.93;;;4.13;;
35324;SDS011;35135;47.510;19.036;2022-07-22T16:09:15;5.95;;;3.58;;
35324;SDS011;35135;47.510;19.036;2022-07-22T16:11:54;4.38;;;3.60;;
35324;SDS011;35135;47.510;19.036;2022-07-22T16:14:23;4.03;;;3.65;;
35324;SDS011;35135;47.510;19.036;2022-07-22T16:16:52;5.47;;;3.67;;
35324;SDS011;35135;47.510;19.036;2022-07-22T16:19:21;3.97;;;3.60;;
35324;SDS011;35135;47.510;19.036;2022-07-22T16:21:49;4.35;;;3.80;;
35324;SDS011;35135;47.510;19.036;2022-07-22T16:24:19;3.85;;;3.47;;
35324;SDS011;35135;47.510;19.036;2022-07-22T16:26:45;6.18;;;3.85;;
35324;SDS011;35135;47.510;19.036;2022-07-22T16:29:17;5.25;;;3.22;;
35324;SDS011;35135;47.510;19.036;2022-07-22T16:31:46;4.40;;;3.67;;
35324;SDS011;35135;47.510;19.036;2022-07-22T16:34:13;4.28;;;3.72;;
35324;SDS011;35135;47.510;19.036;2022-07-22T16:36:40;4.53;;;3.90;;
35324;SDS011;35135;47.510;19.036;2022-07-22T16:39:07;5.88;;;3.60;;
35324;SDS011;35135;47.510;19.036;2022-07-22T16:41:38;7.55;;;3.67;;
35324;SDS011;35135;47.510;19.036;2022-07-22T16:44:07;4.18;;;3.67;;
35324;SDS011;35135;47.510;19.036;2022-07-22T16:46:34;5.65;;;3.55;;
35324;SDS011;35135;47.510;19.036;2022-07-22T16:49:03;4.45;;;3.97;;
35324;SDS011;35135;47.510;19.036;2022-07-22T16:51:30;7.18;;;3.83;;
35324;SDS011;35135;47.510;19.036;2022-07-22T16:53:59;8.45;;;3.58;;
35324;SDS011;35135;47.510;19.036;2022-07-22T16:56:34;5.53;;;3.90;;
35324;SDS011;35135;47.510;19.036;2022-07-22T16:59:02;7.72;;;3.60;;
35324;SDS011;35135;47.510;19.036;2022-07-22T17:01:31;6.60;;;3.67;;
35324;SDS011;35135;47.510;19.036;2022-07-22T17:03:58;6.25;;;4.18;;
35324;SDS011;35135;47.510;19.036;2022-07-22T17:06:26;4.68;;;4.00;;
35324;SDS011;35135;47.510;19.036;2022-07-22T17:08:54;5.85;;;4.03;;
35324;SDS011;35135;47.510;19.036;2022-07-22T17:11:23;6.15;;;3.65;;
35324;SDS011;35135;47.510;19.036;2022-07-22T17:13:52;5.25;;;3.55;;
35324;SDS011;35135;47.510;19.036;2022-07-22T17:16:19;4.68;;;3.75;;
35324;SDS011;35135;47.510;19.036;2022-07-22T17:18:46;4.70;;;3.65;;
35324;SDS011;35135;47.510;19.036;2022-07-22T17:21:20;3.72;;;3.30;;
35324;SDS011;35135;47.510;19.036;2022-07-22T17:23:49;3.25;;;2.95;;
35324;SDS011;35135;47.510;19.036;2022-07-22T17:26:19;5.40;;;3.90;;
35324;SDS011;35135;47.510;19.036;2022-07-22T17:28:50;7.05;;;4.53;;
35324;SDS011;35135;47.510;19.036;2022-07-22T17:31:17;6.15;;;4.10;;
35324;SDS011;35135;47.510;19.036;2022-07-22T17:33:51;4.20;;;3.80;;
35324;SDS011;35135;47.510;19.036;2022-07-22T17:36:19;3.83;;;3.53;;
35324;SDS011;35135;47.510;19.036;2022-07-22T17:38:49;6.80;;;3.70;;
35324;SDS011;35135;47.510;19.036;2022-07-22T17:41:19;4.60;;;3.40;;
35324;SDS011;35135;47.510;19.036;2022-07-22T17:43:47;3.72;;;3.33;;
35324;SDS011;35135;47.510;19.036;2022-07-22T17:46:16;4.00;;;3.33;;
35324;SDS011;35135;47.510;19.036;2022-07-22T17:48:45;4.90;;;3.30;;
35324;SDS011;35135;47.510;19.036;2022-07-22T17:51:13;4.82;;;3.83;;
35324;SDS011;35135;47.510;19.036;2022-07-22T17:53:40;4.72;;;3.63;;
35324;SDS011;35135;47.510;19.036;2022-07-22T17:56:09;8.82;;;3.63;;
35324;SDS011;35135;47.510;19.036;2022-07-22T17:58:37;6.32;;;3.80;;
35324;SDS011;35135;47.510;19.036;2022-07-22T18:01:06;6.20;;;3.72;;
35324;SDS011;35135;47.510;19.036;2022-07-22T18:03:40;7.82;;;3.67;;
35324;SDS011;35135;47.510;19.036;2022-07-22T18:06:10;6.15;;;3.63;;
35324;SDS011;35135;47.510;19.036;2022-07-22T18:08:39;4.18;;;3.63;;
35324;SDS011;35135;47.510;19.036;2022-07-22T18:11:06;6.20;;;3.83;;
35324;SDS011;35135;47.510;19.036;2022-07-22T18:13:39;5.15;;;3.88;;
35324;SDS011;35135;47.510;19.036;2022-07-22T18:16:09;4.53;;;3.97;;
35324;SDS011;35135;47.510;19.036;2022-07-22T18:18:42;6.03;;;3.88;;
35324;SDS011;35135;47.510;19.036;2022-07-22T18:21:10;5.45;;;4.03;;
35324;SDS011;35135;47.510;19.036;2022-07-22T18:23:39;4.65;;;4.22;;
35324;SDS011;35135;47.510;19.036;2022-07-22T18:26:06;6.03;;;4.20;;
35324;SDS011;35135;47.510;19.036;2022-07-22T18:28:34;4.85;;;3.95;;
35324;SDS011;35135;47.510;19.036;2022-07-22T18:31:01;6.25;;;4.10;;
35324;SDS011;35135;47.510;19.036;2022-07-22T18:33:32;8.90;;;4.00;;
35324;SDS011;35135;47.510;19.036;2022-07-22T18:36:06;5.65;;;4.20;;
35324;SDS011;35135;47.510;19.036;2022-07-22T18:38:38;6.50;;;4.65;;
35324;SDS011;35135;47.510;19.036;2022-07-22T18:41:11;7.30;;;4.70;;
35324;SDS011;35135;47.510;19.036;2022-07-22T18:43:40;4.93;;;4.00;;
35324;SDS011;35135;47.510;19.036;2022-07-22T18:46:09;5.20;;;4.70;;
35324;SDS011;35135;47.510;19.036;2022-07-22T18:48:44;6.50;;;4.40;;
35324;SDS011;35135;47.510;19.036;2022-07-22T18:51:17;5.90;;;4.63;;
35324;SDS011;35135;47.510;19.036;2022-07-22T18:53:46;7.13;;;4.40;;
35324;SDS011;35135;47.510;19.036;2022-07-22T18:56:14;6.60;;;4.28;;
35324;SDS011;35135;47.510;19.036;2022-07-22T18:58:43;5.57;;;4.30;;
35324;SDS011;35135;47.510;19.036;2022-07-22T19:01:12;7.93;;;4.90;;
35324;SDS011;35135;47.510;19.036;2022-07-22T19:03:41;5.15;;;4.40;;
35324;SDS011;35135;47.510;19.036;2022-07-22T19:06:10;6.78;;;4.68;;
35324;SDS011;35135;47.510;19.036;2022-07-22T19:08:43;6.10;;;4.38;;
35324;SDS011;35135;47.510;19.036;2022-07-22T19:11:17;4.95;;;4.45;;
35324;SDS011;35135;47.510;19.036;2022-07-22T19:13:46;5.68;;;4.95;;
35324;SDS011;35135;47.510;19.036;2022-07-22T19:16:13;8.02;;;4.65;;
35324;SDS011;35135;47.510;19.036;2022-07-22T19:18:40;7.65;;;5.28;;
35324;SDS011;35135;47.510;19.036;2022-07-22T19:21:09;7.00;;;5.45;;
35324;SDS011;35135;47.510;19.036;2022-07-22T19:23:37;10.50;;;4.78;;
35324;SDS011;35135;47.510;19.036;2022-07-22T19:26:03;8.90;;;4.95;;
35324;SDS011;35135;47.510;19.036;2022-07-22T19:28:32;7.20;;;4.72;;
35324;SDS011;35135;47.510;19.036;2022-07-22T19:31:08;7.90;;;5.22;;
35324;SDS011;35135;47.510;19.036;2022-07-22T19:33:35;6.35;;;4.90;;
35324;SDS011;35135;47.510;19.036;2022-07-22T19:36:03;6.93;;;5.00;;
35324;SDS011;35135;47.510;19.036;2022-07-22T19:38:29;8.05;;;5.13;;
35324;SDS011;35135;47.510;19.036;2022-07-22T19:40:57;6.25;;;5.00;;
35324;SDS011;35135;47.510;19.036;2022-07-22T19:43:24;9.25;;;4.93;;
35324;SDS011;35135;47.510;19.036;2022-07-22T19:45:50;9.30;;;5.28;;
35324;SDS011;35135;47.510;19.036;2022-07-22T19:48:16;8.93;;;5.00;;
35324;SDS011;35135;47.510;19.036;2022-07-22T19:50:43;6.25;;;4.63;;
35324;SDS011;35135;47.510;19.036;2022-07-22T19:53:09;7.00;;;5.00;;
35324;SDS011;35135;47.510;19.036;2022-07-22T19:55:37;8.45;;;5.90;;
35324;SDS011;35135;47.510;19.036;2022-07-22T19:58:06;6.07;;;5.20;;
35324;SDS011;35135;47.510;19.036;2022-07-22T20:00:34;9.07;;;5.32;;
35324;SDS011;35135;47.510;19.036;2022-07-22T20:03:02;8.63;;;5.32;;
35324;SDS011;35135;47.510;19.036;2022-07-22T20:05:28;11.00;;;5.70;;
35324;SDS011;35135;47.510;19.036;2022-07-22T20:07:56;5.20;;;4.20;;
35324;SDS011;35135;47.510;19.036;2022-07-22T20:10:25;6.43;;;5.13;;
35324;SDS011;35135;47.510;19.036;2022-07-22T20:12:51;6.45;;;4.95;;
35324;SDS011;35135;47.510;19.036;2022-07-22T20:15:23;6.05;;;4.95;;
35324;SDS011;35135;47.510;19.036;2022-07-22T20:17:52;7.03;;;4.85;;
35324;SDS011;35135;47.510;19.036;2022-07-22T20:20:20;6.15;;;5.00;;
35324;SDS011;35135;47.510;19.036;2022-07-22T20:22:48;5.60;;;4.80;;
35324;SDS011;35135;47.510;19.036;2022-07-22T20:25:16;12.80;;;5.32;;
35324;SDS011;35135;47.510;19.036;2022-07-22T20:27:45;7.13;;;4.85;;
35324;SDS011;35135;47.510;19.036;2022-07-22T20:30:11;6.72;;;5.38;;
35324;SDS011;35135;47.510;19.036;2022-07-22T20:32:38;6.97;;;4.75;;
35324;SDS011;35135;47.510;19.036;2022-07-22T20:35:05;6.20;;;4.93;;
35324;SDS011;35135;47.510;19.036;2022-07-22T20:37:32;7.07;;;4.90;;
35324;SDS011;35135;47.510;19.036;2022-07-22T20:39:58;7.80;;;4.78;;
35324;SDS011;35135;47.510;19.036;2022-07-22T20:42:27;8.10;;;4.90;;
35324;SDS011;35135;47.510;19.036;2022-07-22T20:44:56;9.05;;;5.03;;
35324;SDS011;35135;47.510;19.036;2022-07-22T20:47:23;8.98;;;4.78;;
35324;SDS011;35135;47.510;19.036;2022-07-22T20:49:49;5.47;;;4.90;;
35324;SDS011;35135;47.510;19.036;2022-07-22T20:52:17;9.00;;;4.82;;
35324;SDS011;35135;47.510;19.036;2022-07-22T20:54:49;8.25;;;4.60;;
35324;SDS011;35135;47.510;19.036;2022-07-22T20:57:17;7.95;;;5.15;;
35324;SDS011;35135;47.510;19.036;2022-07-22T20:59:45;7.20;;;4.97;;
35324;SDS011;35135;47.510;19.036;2022-07-22T21:02:14;5.85;;;4.40;;
35324;SDS011;35135;47.510;19.036;2022-07-22T21:04:41;7.35;;;4.90;;
35324;SDS011;35135;47.510;19.036;2022-07-22T21:07:11;4.97;;;4.53;;
35324;SDS011;35135;47.510;19.036;2022-07-22T21:09:40;7.60;;;4.72;;
35324;SDS011;35135;47.510;19.036;2022-07-22T21:12:09;6.40;;;4.85;;
35324;SDS011;35135;47.510;19.036;2022-07-22T21:14:36;7.30;;;4.78;;
35324;SDS011;35135;47.510;19.036;2022-07-22T21:17:02;6.68;;;5.47;;
35324;SDS011;35135;47.510;19.036;2022-07-22T21:19:40;6.50;;;4.68;;
35324;SDS011;35135;47.510;19.036;2022-07-22T21:22:10;6.60;;;4.85;;
35324;SDS011;35135;47.510;19.036;2022-07-22T21:24:39;5.82;;;4.68;;
35324;SDS011;35135;47.510;19.036;2022-07-22T21:27:06;4.95;;;4.43;;
35324;SDS011;35135;47.510;19.036;2022-07-22T21:29:36;5.30;;;4.63;;
35324;SDS011;35135;47.510;19.036;2022-07-22T21:32:05;6.60;;;4.75;;
35324;SDS011;35135;47.510;19.036;2022-07-22T21:34:34;5.78;;;4.78;;
35324;SDS011;35135;47.510;19.036;2022-07-22T21:37:01;5.57;;;4.43;;
35324;SDS011;35135;47.510;19.036;2022-07-22T21:39:29;6.55;;;5.25;;
35324;SDS011;35135;47.510;19.036;2022-07-22T21:41:59;5.38;;;4.75;;
35324;SDS011;35135;47.510;19.036;2022-07-22T21:44:33;6.32;;;4.65;;
35324;SDS011;35135;47.510;19.036;2022-07-22T21:47:02;7.82;;;5.25;;
35324;SDS011;35135;47.510;19.036;2022-07-22T21:49:31;8.23;;;5.07;;
35324;SDS011;35135;47.510;19.036;2022-07-22T21:51:59;11.10;;;4.82;;
35324;SDS011;35135;47.510;19.036;2022-07-22T21:54:26;7.07;;;4.88;;
35324;SDS011;35135;47.510;19.036;2022-07-22T21:56:55;5.47;;;4.95;;
35324;SDS011;35135;47.510;19.036;2022-07-22T21:59:27;6.78;;;4.85;;
35324;SDS011;35135;47.510;19.036;2022-07-22T22:01:55;6.95;;;5.22;;
35324;SDS011;35135;47.510;19.036;2022-07-22T22:04:24;6.63;;;4.80;;
35324;SDS011;35135;47.510;19.036;2022-07-22T22:06:52;7.30;;;5.05;;
35324;SDS011;35135;47.510;19.036;2022-07-22T22:09:20;9.98;;;5.60;;
35324;SDS011;35135;47.510;19.036;2022-07-22T22:11:48;7.45;;;5.05;;
35324;SDS011;35135;47.510;19.036;2022-07-22T22:14:16;5.70;;;5.13;;
35324;SDS011;35135;47.510;19.036;2022-07-22T22:16:46;7.95;;;5.50;;
35324;SDS011;35135;47.510;19.036;2022-07-22T22:19:13;6.20;;;5.10;;
35324;SDS011;35135;47.510;19.036;2022-07-22T22:21:42;6.90;;;5.32;;
35324;SDS011;35135;47.510;19.036;2022-07-22T22:24:11;8.30;;;5.25;;
35324;SDS011;35135;47.510;19.036;2022-07-22T22:26:37;7.38;;;5.45;;
35324;SDS011;35135;47.510;19.036;2022-07-22T22:29:06;6.10;;;5.30;;
35324;SDS011;35135;47.510;19.036;2022-07-22T22:31:36;6.45;;;5.20;;
35324;SDS011;35135;47.510;19.036;2022-07-22T22:34:09;9.55;;;5.07;;
35324;SDS011;35135;47.510;19.036;2022-07-22T22:36:38;5.35;;;4.85;;
35324;SDS011;35135;47.510;19.036;2022-07-22T22:39:10;7.00;;;5.25;;
35324;SDS011;35135;47.510;19.036;2022-07-22T22:41:39;7.20;;;5.00;;
35324;SDS011;35135;47.510;19.036;2022-07-22T22:44:11;6.60;;;5.22;;
35324;SDS011;35135;47.510;19.036;2022-07-22T22:46:40;5.72;;;5.18;;
35324;SDS011;35135;47.510;19.036;2022-07-22T22:49:09;9.25;;;5.32;;
35324;SDS011;35135;47.510;19.036;2022-07-22T22:51:42;9.35;;;5.70;;
35324;SDS011;35135;47.510;19.036;2022-07-22T22:54:11;6.65;;;5.07;;
35324;SDS011;35135;47.510;19.036;2022-07-22T22:56:40;7.13;;;5.03;;
35324;SDS011;35135;47.510;19.036;2022-07-22T22:59:08;8.68;;;5.13;;
35324;SDS011;35135;47.510;19.036;2022-07-22T23:01:35;5.78;;;5.05;;
35324;SDS011;35135;47.510;19.036;2022-07-22T23:04:04;6.15;;;4.95;;
35324;SDS011;35135;47.510;19.036;2022-07-22T23:06:33;7.03;;;4.82;;
35324;SDS011;35135;47.510;19.036;2022-07-22T23:09:02;6.72;;;5.07;;
35324;SDS011;35135;47.510;19.036;2022-07-22T23:11:31;6.30;;;5.07;;
35324;SDS011;35135;47.510;19.036;2022-07-22T23:14:00;8.25;;;5.85;;
35324;SDS011;35135;47.510;19.036;2022-07-22T23:16:28;6.95;;;4.82;;
35324;SDS011;35135;47.510;19.036;2022-07-22T23:18:55;6.00;;;5.00;;
35324;SDS011;35135;47.510;19.036;2022-07-22T23:21:24;6.25;;;5.05;;
35324;SDS011;35135;47.510;19.036;2022-07-22T23:23:53;6.57;;;4.88;;
35324;SDS011;35135;47.510;19.036;2022-07-22T23:26:23;6.22;;;5.38;;
35324;SDS011;35135;47.510;19.036;2022-07-22T23:29:00;6.78;;;4.93;;